sensor_id;sensor_type;location;lat;lon;timestamp;pressure;altitude;pressure_sealevel;temperature;humidity
39789;BME280;25478;42.626;23.320;2023-03-14T00:00:36;93279.13;;;0.60;61.46
39789;BME280;25478;42.626;23.320;2023-03-14T00:03:02;93274.53;;;0.57;61.57
39789;BME280;25478;42.626;23.320;2023-03-14T00:05:28;93264.94;;;0.57;62.09
39789;BME280;25478;42.626;23.320;2023-03-14T00:07:53;93247.56;;;0.49;61.63
39789;BME280;25478;42.626;23.320;2023-03-14T00:10:19;93258.69;;;0.59;62.53
39789;BME280;25478;42.626;23.320;2023-03-14T00:12:45;93255.03;;;0.60;62.30
39789;BME280;25478;42.626;23.320;2023-03-14T00:15:11;93257.31;;;0.61;62.08
39789;BME280;25478;42.626;23.320;2023-03-14T00:17:37;93237.38;;;0.53;62.41
39789;BME280;25478;42.626;23.320;2023-03-14T00:20:05;93248.31;;;0.67;62.39
39789;BME280;25478;42.626;23.320;2023-03-14T00:22:38;93233.53;;;0.68;62.19
39789;BME280;25478;42.626;23.320;2023-03-14T00:25:05;93225.28;;;0.66;62.25
39789;BME280;25478;42.626;23.320;2023-03-14T00:27:31;93226.38;;;0.65;62.48
39789;BME280;25478;42.626;23.320;2023-03-14T00:29:57;93225.16;;;0.62;62.49
39789;BME280;25478;42.626;23.320;2023-03-14T00:32:23;93218.00;;;0.59;63.22
39789;BME280;25478;42.626;23.320;2023-03-14T00:34:49;93214.63;;;0.59;63.27
39789;BME280;25478;42.626;23.320;2023-03-14T00:37:14;93216.03;;;0.56;63.66
39789;BME280;25478;42.626;23.320;2023-03-14T00:39:40;93211.47;;;0.53;63.46
39789;BME280;25478;42.626;23.320;2023-03-14T00:42:05;93198.53;;;0.44;63.37
39789;BME280;25478;42.626;23.320;2023-03-14T00:44:31;93209.47;;;0.50;63.82
39789;BME280;25478;42.626;23.320;2023-03-14T00:46:57;93197.59;;;0.49;63.64
39789;BME280;25478;42.626;23.320;2023-03-14T00:49:24;93196.84;;;0.48;63.42
39789;BME280;25478;42.626;23.320;2023-03-14T00:51:50;93201.25;;;0.48;63.69
39789;BME280;25478;42.626;23.320;2023-03-14T00:54:17;93199.72;;;0.47;63.19
39789;BME280;25478;42.626;23.320;2023-03-14T00:56:43;93177.06;;;0.26;63.97
39789;BME280;25478;42.626;23.320;2023-03-14T00:59:09;93200.34;;;0.44;63.47
39789;BME280;25478;42.626;23.320;2023-03-14T01:01:34;93198.06;;;0.42;63.58
39789;BME280;25478;42.626;23.320;2023-03-14T01:04:00;93193.50;;;0.39;63.97
39789;BME280;25478;42.626;23.320;2023-03-14T01:06:27;93176.16;;;0.22;63.85
39789;BME280;25478;42.626;23.320;2023-03-14T01:08:54;93190.28;;;0.34;64.10
39789;BME280;25478;42.626;23.320;2023-03-14T01:11:26;93169.31;;;0.18;64.38
39789;BME280;25478;42.626;23.320;2023-03-14T01:13:53;93153.94;;;0.13;64.61
39789;BME280;25478;42.626;23.320;2023-03-14T01:16:21;93190.59;;;0.32;64.24
39789;BME280;25478;42.626;23.320;2023-03-14T01:18:49;93181.63;;;0.30;64.26
39789;BME280;25478;42.626;23.320;2023-03-14T01:21:24;93187.13;;;0.28;64.90
39789;BME280;25478;42.626;23.320;2023-03-14T01:23:52;93174.00;;;0.24;64.82
39789;BME280;25478;42.626;23.320;2023-03-14T01:26:20;93172.81;;;0.22;64.59
39789;BME280;25478;42.626;23.320;2023-03-14T01:28:46;93171.28;;;0.21;65.20
39789;BME280;25478;42.626;23.320;2023-03-14T01:31:13;93166.41;;;0.19;65.23
39789;BME280;25478;42.626;23.320;2023-03-14T01:33:39;93174.50;;;0.18;65.90
39789;BME280;25478;42.626;23.320;2023-03-14T01:36:05;93170.66;;;0.15;66.20
39789;BME280;25478;42.626;23.320;2023-03-14T01:38:33;93166.09;;;0.12;65.97
39789;BME280;25478;42.626;23.320;2023-03-14T01:40:59;93158.66;;;0.11;66.45
39789;BME280;25478;42.626;23.320;2023-03-14T01:43:26;93155.63;;;0.09;66.29
39789;BME280;25478;42.626;23.320;2023-03-14T01:48:38;93149.06;;;0.11;67.11
39789;BME280;25478;42.626;23.320;2023-03-14T01:51:10;93123.94;;;-0.06;66.94
39789;BME280;25478;42.626;23.320;2023-03-14T01:53:38;93138.53;;;0.08;67.02
39789;BME280;25478;42.626;23.320;2023-03-14T01:56:05;93144.03;;;0.06;67.42
39789;BME280;25478;42.626;23.320;2023-03-14T01:58:32;93143.28;;;0.06;67.58
39789;BME280;25478;42.626;23.320;2023-03-14T02:01:00;93149.50;;;0.05;68.27
39789;BME280;25478;42.626;23.320;2023-03-14T02:03:27;93143.88;;;0.03;68.34
39789;BME280;25478;42.626;23.320;2023-03-14T02:05:55;93145.41;;;0.04;68.41
39789;BME280;25478;42.626;23.320;2023-03-14T02:08:23;93140.53;;;0.02;68.38
39789;BME280;25478;42.626;23.320;2023-03-14T02:10:56;93151.66;;;0.03;67.92
39789;BME280;25478;42.626;23.320;2023-03-14T02:13:33;93137.34;;;-0.04;67.74
39789;BME280;25478;42.626;23.320;2023-03-14T02:16:19;93141.13;;;-0.01;67.89
39789;BME280;25478;42.626;23.320;2023-03-14T02:18:57;93131.09;;;-0.03;68.12
39789;BME280;25478;42.626;23.320;2023-03-14T02:22:06;93130.34;;;-0.03;67.88
39789;BME280;25478;42.626;23.320;2023-03-14T02:27:15;93110.09;;;-0.18;68.11
39789;BME280;25478;42.626;23.320;2023-03-14T02:29:49;93134.00;;;-0.04;67.87
39789;BME280;25478;42.626;23.320;2023-03-14T02:32:16;93128.19;;;-0.01;67.84
39789;BME280;25478;42.626;23.320;2023-03-14T02:34:45;93122.75;;;0.01;67.81
39789;BME280;25478;42.626;23.320;2023-03-14T02:37:13;93130.78;;;-0.01;68.21
39789;BME280;25478;42.626;23.320;2023-03-14T02:39:43;93126.69;;;-0.02;68.59
39789;BME280;25478;42.626;23.320;2023-03-14T02:42:11;93139.63;;;-0.02;67.90
39789;BME280;25478;42.626;23.320;2023-03-14T02:44:54;93135.06;;;-0.05;68.45
39789;BME280;25478;42.626;23.320;2023-03-14T02:47:27;93145.41;;;-0.05;68.41
39789;BME280;25478;42.626;23.320;2023-03-14T02:50:30;93146.78;;;-0.08;69.14
39789;BME280;25478;42.626;23.320;2023-03-14T02:52:48;93119.84;;;-0.24;68.78
39789;BME280;25478;42.626;23.320;2023-03-14T02:55:14;93140.56;;;-0.15;68.44
39789;BME280;25478;42.626;23.320;2023-03-14T02:57:43;93145.56;;;-0.19;69.45
39789;BME280;25478;42.626;23.320;2023-03-14T03:00:09;93151.34;;;-0.22;69.46
39789;BME280;25478;42.626;23.320;2023-03-14T03:02:36;93156.53;;;-0.22;69.78
39789;BME280;25478;42.626;23.320;2023-03-14T03:05:02;93146.63;;;-0.29;69.69
39789;BME280;25478;42.626;23.320;2023-03-14T03:07:27;93150.72;;;-0.28;69.83
39789;BME280;25478;42.626;23.320;2023-03-14T03:09:55;93142.22;;;-0.28;69.57
39789;BME280;25478;42.626;23.320;2023-03-14T03:12:20;93130.03;;;-0.36;69.72
39789;BME280;25478;42.626;23.320;2023-03-14T03:14:46;93145.09;;;-0.30;69.94
39789;BME280;25478;42.626;23.320;2023-03-14T03:17:11;93142.66;;;-0.35;69.73
39789;BME280;25478;42.626;23.320;2023-03-14T03:19:37;93141.31;;;-0.32;70.17
39789;BME280;25478;42.626;23.320;2023-03-14T03:22:03;93136.44;;;-0.34;69.75
39789;BME280;25478;42.626;23.320;2023-03-14T03:24:28;93139.78;;;-0.33;70.12
39789;BME280;25478;42.626;23.320;2023-03-14T03:26:54;93138.25;;;-0.34;69.83
39789;BME280;25478;42.626;23.320;2023-03-14T03:29:20;93124.53;;;-0.43;69.90
39789;BME280;25478;42.626;23.320;2023-03-14T03:31:45;93146.94;;;-0.39;69.62
39789;BME280;25478;42.626;23.320;2023-03-14T03:34:12;93139.16;;;-0.39;70.25
39789;BME280;25478;42.626;23.320;2023-03-14T03:36:39;93139.00;;;-0.42;70.71
39789;BME280;25478;42.626;23.320;2023-03-14T03:39:05;93135.19;;;-0.45;70.22
39789;BME280;25478;42.626;23.320;2023-03-14T03:41:31;93131.84;;;-0.45;70.81
39789;BME280;25478;42.626;23.320;2023-03-14T03:43:57;93137.34;;;-0.47;71.06
39789;BME280;25478;42.626;23.320;2023-03-14T03:46:23;93139.63;;;-0.45;70.62
39789;BME280;25478;42.626;23.320;2023-03-14T03:48:54;93150.25;;;-0.47;70.76
39789;BME280;25478;42.626;23.320;2023-03-14T03:51:19;93152.69;;;-0.50;70.67
39789;BME280;25478;42.626;23.320;2023-03-14T03:53:46;93155.28;;;-0.50;71.45
39789;BME280;25478;42.626;23.320;2023-03-14T03:56:15;93150.69;;;-0.62;71.41
39789;BME280;25478;42.626;23.320;2023-03-14T03:58:41;93168.34;;;-0.55;71.83
39789;BME280;25478;42.626;23.320;2023-03-14T04:01:08;93160.91;;;-0.57;71.62
39789;BME280;25478;42.626;23.320;2023-03-14T04:03:33;93156.31;;;-0.60;71.50
39789;BME280;25478;42.626;23.320;2023-03-14T04:06:00;93138.38;;;-0.74;71.71
39789;BME280;25478;42.626;23.320;2023-03-14T04:08:27;93152.53;;;-0.63;72.33
39789;BME280;25478;42.626;23.320;2023-03-14T04:10:57;93154.34;;;-0.63;72.41
39789;BME280;25478;42.626;23.320;2023-03-14T04:13:36;93152.81;;;-0.64;72.60
39789;BME280;25478;42.626;23.320;2023-03-14T04:16:02;93133.34;;;-0.70;72.22
39789;BME280;25478;42.626;23.320;2023-03-14T04:18:28;93137.63;;;-0.66;72.33
39789;BME280;25478;42.626;23.320;2023-03-14T04:20:56;93136.84;;;-0.66;72.63
39789;BME280;25478;42.626;23.320;2023-03-14T04:23:27;93135.94;;;-0.70;72.93
39789;BME280;25478;42.626;23.320;2023-03-14T04:25:54;93130.31;;;-0.72;73.16
39789;BME280;25478;42.626;23.320;2023-03-14T04:28:21;93133.19;;;-0.74;72.68
39789;BME280;25478;42.626;23.320;2023-03-14T04:30:46;93121.34;;;-0.66;73.38
39789;BME280;25478;42.626;23.320;2023-03-14T04:33:17;93113.59;;;-0.66;72.69
39789;BME280;25478;42.626;23.320;2023-03-14T04:35:52;93116.94;;;-0.66;73.52
39789;BME280;25478;42.626;23.320;2023-03-14T04:38:18;93118.28;;;-0.68;73.46
39789;BME280;25478;42.626;23.320;2023-03-14T04:40:45;93112.84;;;-0.67;73.28
39789;BME280;25478;42.626;23.320;2023-03-14T04:43:12;93111.00;;;-0.66;73.19
39789;BME280;25478;42.626;23.320;2023-03-14T04:45:45;93110.25;;;-0.67;73.63
39789;BME280;25478;42.626;23.320;2023-03-14T04:48:11;93110.53;;;-0.68;73.64
39789;BME280;25478;42.626;23.320;2023-03-14T04:50:37;93099.72;;;-0.70;73.46
39789;BME280;25478;42.626;23.320;2023-03-14T04:53:03;93100.19;;;-0.68;73.68
39789;BME280;25478;42.626;23.320;2023-03-14T04:55:31;93096.09;;;-0.69;73.67
39789;BME280;25478;42.626;23.320;2023-03-14T04:57:58;93093.50;;;-0.69;73.81
39789;BME280;25478;42.626;23.320;2023-03-14T05:00:24;93086.38;;;-0.64;74.17
39789;BME280;25478;42.626;23.320;2023-03-14T05:02:50;93091.97;;;-0.62;73.90
39789;BME280;25478;42.626;23.320;2023-03-14T05:05:42;93084.69;;;-0.60;73.61
39789;BME280;25478;42.626;23.320;2023-03-14T05:08:08;93093.69;;;-0.57;73.50
39789;BME280;25478;42.626;23.320;2023-03-14T05:11:00;93087.56;;;-0.52;73.84
39789;BME280;25478;42.626;23.320;2023-03-14T05:13:40;93089.72;;;-0.46;73.73
39789;BME280;25478;42.626;23.320;2023-03-14T05:16:24;93095.03;;;-0.42;73.29
39789;BME280;25478;42.626;23.320;2023-03-14T05:19:15;93092.44;;;-0.42;73.50
39789;BME280;25478;42.626;23.320;2023-03-14T05:21:57;93095.06;;;-0.34;73.60
39789;BME280;25478;42.626;23.320;2023-03-14T05:24:47;93087.75;;;-0.23;73.38
39789;BME280;25478;42.626;23.320;2023-03-14T05:27:41;93090.63;;;-0.07;73.72
39789;BME280;25478;42.626;23.320;2023-03-14T05:30:39;93083.16;;;0.09;73.23
39789;BME280;25478;42.626;23.320;2023-03-14T05:33:30;93087.66;;;0.29;72.54
39789;BME280;25478;42.626;23.320;2023-03-14T05:36:34;93078.28;;;0.54;72.16
39789;BME280;25478;42.626;23.320;2023-03-14T05:38:59;93051.63;;;0.53;71.55
39789;BME280;25478;42.626;23.320;2023-03-14T05:41:37;93086.72;;;1.10;70.39
39789;BME280;25478;42.626;23.320;2023-03-14T05:44:21;93083.44;;;1.42;69.25
39789;BME280;25478;42.626;23.320;2023-03-14T05:47:00;93078.78;;;1.78;67.42
39789;BME280;25478;42.626;23.320;2023-03-14T05:49:44;93095.91;;;2.12;66.41
39789;BME280;25478;42.626;23.320;2023-03-14T05:52:09;93093.28;;;2.45;64.11
39789;BME280;25478;42.626;23.320;2023-03-14T05:54:48;93062.66;;;2.63;63.28
39789;BME280;25478;42.626;23.320;2023-03-14T05:57:32;93081.81;;;3.19;61.43
39789;BME280;25478;42.626;23.320;2023-03-14T06:00:04;93090.81;;;3.46;58.87
39789;BME280;25478;42.626;23.320;2023-03-14T06:02:44;93080.03;;;3.60;57.99
39789;BME280;25478;42.626;23.320;2023-03-14T06:05:19;93069.94;;;3.71;56.84
39789;BME280;25478;42.626;23.320;2023-03-14T06:07:45;93098.38;;;3.91;56.48
39789;BME280;25478;42.626;23.320;2023-03-14T06:10:10;93097.28;;;3.92;56.92
39789;BME280;25478;42.626;23.320;2023-03-14T06:12:37;93087.13;;;3.87;56.15
39789;BME280;25478;42.626;23.320;2023-03-14T06:15:03;93083.88;;;3.78;56.08
39789;BME280;25478;42.626;23.320;2023-03-14T06:17:29;93086.94;;;3.80;56.09
39789;BME280;25478;42.626;23.320;2023-03-14T06:20:02;93079.47;;;3.94;55.72
39789;BME280;25478;42.626;23.320;2023-03-14T06:22:29;93078.59;;;4.03;55.32
39789;BME280;25478;42.626;23.320;2023-03-14T06:24:54;93085.34;;;4.04;54.87
39789;BME280;25478;42.626;23.320;2023-03-14T06:27:21;93087.28;;;3.94;55.16
39789;BME280;25478;42.626;23.320;2023-03-14T06:29:47;93095.78;;;3.91;55.70
39789;BME280;25478;42.626;23.320;2023-03-14T06:32:13;93091.75;;;3.94;55.61
39789;BME280;25478;42.626;23.320;2023-03-14T06:34:39;93093.03;;;4.00;55.87
39789;BME280;25478;42.626;23.320;2023-03-14T06:37:06;93095.63;;;4.12;55.65
39789;BME280;25478;42.626;23.320;2023-03-14T06:39:32;93100.53;;;4.45;54.97
39789;BME280;25478;42.626;23.320;2023-03-14T06:42:05;93090.91;;;4.77;54.21
39789;BME280;25478;42.626;23.320;2023-03-14T06:44:31;93085.75;;;5.13;53.39
39789;BME280;25478;42.626;23.320;2023-03-14T06:46:57;93080.63;;;5.51;52.91
39789;BME280;25478;42.626;23.320;2023-03-14T06:49:22;93076.78;;;5.80;52.19
39789;BME280;25478;42.626;23.320;2023-03-14T06:51:51;93077.59;;;6.04;51.00
39789;BME280;25478;42.626;23.320;2023-03-14T06:54:17;93063.16;;;6.10;50.31
39789;BME280;25478;42.626;23.320;2023-03-14T06:56:42;93061.78;;;6.16;50.20
39789;BME280;25478;42.626;23.320;2023-03-14T06:59:09;93069.00;;;6.23;50.65
39789;BME280;25478;42.626;23.320;2023-03-14T07:01:35;93069.34;;;6.40;49.49
39789;BME280;25478;42.626;23.320;2023-03-14T07:04:05;93072.47;;;6.49;49.25
39789;BME280;25478;42.626;23.320;2023-03-14T07:06:31;93062.59;;;6.62;48.30
39789;BME280;25478;42.626;23.320;2023-03-14T07:08:56;93063.94;;;6.75;48.87
39789;BME280;25478;42.626;23.320;2023-03-14T07:11:23;93057.84;;;6.91;47.49
39789;BME280;25478;42.626;23.320;2023-03-14T07:13:48;93056.41;;;6.97;47.04
39789;BME280;25478;42.626;23.320;2023-03-14T07:16:14;93047.53;;;7.01;47.18
39789;BME280;25478;42.626;23.320;2023-03-14T07:18:39;93048.03;;;7.11;47.46
39789;BME280;25478;42.626;23.320;2023-03-14T07:21:06;93053.47;;;6.98;47.13
39789;BME280;25478;42.626;23.320;2023-03-14T07:23:32;93049.63;;;6.69;47.66
39789;BME280;25478;42.626;23.320;2023-03-14T07:25:58;93052.09;;;6.59;48.41
39789;BME280;25478;42.626;23.320;2023-03-14T07:28:25;93057.22;;;6.55;48.85
39789;BME280;25478;42.626;23.320;2023-03-14T07:30:58;93046.53;;;6.64;49.31
39789;BME280;25478;42.626;23.320;2023-03-14T07:33:29;93056.97;;;6.83;48.40
39789;BME280;25478;42.626;23.320;2023-03-14T07:35:55;93051.84;;;6.90;48.38
39789;BME280;25478;42.626;23.320;2023-03-14T07:38:21;93043.91;;;7.10;48.22
39789;BME280;25478;42.626;23.320;2023-03-14T07:41:06;93044.00;;;7.17;47.39
39789;BME280;25478;42.626;23.320;2023-03-14T07:43:35;93043.09;;;7.05;47.31
39789;BME280;25478;42.626;23.320;2023-03-14T07:46:01;93040.78;;;6.77;47.39
39789;BME280;25478;42.626;23.320;2023-03-14T07:48:27;93031.78;;;6.75;48.43
39789;BME280;25478;42.626;23.320;2023-03-14T07:50:53;93036.84;;;6.87;47.22
39789;BME280;25478;42.626;23.320;2023-03-14T07:53:20;93031.25;;;6.89;47.31
39789;BME280;25478;42.626;23.320;2023-03-14T07:55:46;93015.75;;;6.76;47.28
39789;BME280;25478;42.626;23.320;2023-03-14T07:58:13;93035.19;;;7.02;46.95
39789;BME280;25478;42.626;23.320;2023-03-14T08:00:38;93027.81;;;7.08;46.88
39789;BME280;25478;42.626;23.320;2023-03-14T08:03:04;93038.66;;;7.10;46.34
39789;BME280;25478;42.626;23.320;2023-03-14T08:05:29;93035.66;;;7.08;46.39
39789;BME280;25478;42.626;23.320;2023-03-14T08:07:55;93036.50;;;7.15;46.78
39789;BME280;25478;42.626;23.320;2023-03-14T08:10:20;93036.84;;;7.14;46.39
39789;BME280;25478;42.626;23.320;2023-03-14T08:12:51;93031.94;;;7.09;46.83
39789;BME280;25478;42.626;23.320;2023-03-14T08:15:19;93032.31;;;7.11;46.10
39789;BME280;25478;42.626;23.320;2023-03-14T08:17:44;93021.13;;;7.14;46.36
39789;BME280;25478;42.626;23.320;2023-03-14T08:20:11;93031.59;;;7.14;46.70
39789;BME280;25478;42.626;23.320;2023-03-14T08:22:37;93036.56;;;7.19;46.20
39789;BME280;25478;42.626;23.320;2023-03-14T08:25:03;93038.53;;;7.25;46.16
39789;BME280;25478;42.626;23.320;2023-03-14T08:27:29;93032.28;;;7.33;46.08
39789;BME280;25478;42.626;23.320;2023-03-14T08:29:54;93013.72;;;7.16;45.77
39789;BME280;25478;42.626;23.320;2023-03-14T08:32:20;93033.78;;;7.34;45.28
39789;BME280;25478;42.626;23.320;2023-03-14T08:34:47;93026.69;;;7.35;45.20
39789;BME280;25478;42.626;23.320;2023-03-14T08:37:12;93024.91;;;7.43;45.49
39789;BME280;25478;42.626;23.320;2023-03-14T08:39:37;93027.72;;;7.57;45.15
39789;BME280;25478;42.626;23.320;2023-03-14T08:42:04;93024.88;;;7.69;44.82
39789;BME280;25478;42.626;23.320;2023-03-14T08:44:30;93017.75;;;7.70;44.83
39789;BME280;25478;42.626;23.320;2023-03-14T08:46:55;93010.22;;;7.65;44.41
39789;BME280;25478;42.626;23.320;2023-03-14T08:49:21;93003.63;;;7.78;45.22
39789;BME280;25478;42.626;23.320;2023-03-14T08:51:46;93001.53;;;7.90;44.40
39789;BME280;25478;42.626;23.320;2023-03-14T08:54:12;92997.91;;;8.02;44.17
39789;BME280;25478;42.626;23.320;2023-03-14T08:56:38;92986.38;;;8.10;43.79
39789;BME280;25478;42.626;23.320;2023-03-14T08:59:04;92979.66;;;8.13;43.86
39789;BME280;25478;42.626;23.320;2023-03-14T09:01:29;92989.94;;;8.29;43.55
39789;BME280;25478;42.626;23.320;2023-03-14T09:03:55;92985.13;;;8.34;43.67
39789;BME280;25478;42.626;23.320;2023-03-14T09:06:21;92986.31;;;8.40;43.35
39789;BME280;25478;42.626;23.320;2023-03-14T09:08:46;92981.88;;;8.48;42.94
39789;BME280;25478;42.626;23.320;2023-03-14T09:11:12;92975.25;;;8.58;42.81
39789;BME280;25478;42.626;23.320;2023-03-14T09:13:38;92976.38;;;8.60;42.37
39789;BME280;25478;42.626;23.320;2023-03-14T09:16:04;92968.50;;;8.60;43.24
39789;BME280;25478;42.626;23.320;2023-03-14T09:18:30;92922.34;;;8.52;43.03
39789;BME280;25478;42.626;23.320;2023-03-14T09:20:55;92952.91;;;8.82;42.33
39789;BME280;25478;42.626;23.320;2023-03-14T09:23:21;92946.63;;;8.93;42.86
39789;BME280;25478;42.626;23.320;2023-03-14T09:25:46;92944.47;;;9.13;42.37
39789;BME280;25478;42.626;23.320;2023-03-14T09:28:12;92936.59;;;9.13;42.38
39789;BME280;25478;42.626;23.320;2023-03-14T09:30:38;92940.00;;;9.24;41.70
39789;BME280;25478;42.626;23.320;2023-03-14T09:33:04;92935.97;;;9.34;41.86
39789;BME280;25478;42.626;23.320;2023-03-14T09:35:29;92935.22;;;9.41;41.41
39789;BME280;25478;42.626;23.320;2023-03-14T09:37:55;92873.16;;;9.08;41.60
39789;BME280;25478;42.626;23.320;2023-03-14T09:40:21;92922.16;;;9.51;41.55
39789;BME280;25478;42.626;23.320;2023-03-14T09:42:50;92918.41;;;9.59;41.16
39789;BME280;25478;42.626;23.320;2023-03-14T09:45:27;92914.69;;;9.68;40.85
39789;BME280;25478;42.626;23.320;2023-03-14T09:47:55;92913.22;;;9.81;40.72
39789;BME280;25478;42.626;23.320;2023-03-14T09:50:22;92900.47;;;9.97;40.30
39789;BME280;25478;42.626;23.320;2023-03-14T09:53:00;92894.47;;;10.04;40.08
39789;BME280;25478;42.626;23.320;2023-03-14T09:55:27;92899.72;;;10.07;40.28
39789;BME280;25478;42.626;23.320;2023-03-14T09:58:02;92899.75;;;10.18;40.00
39789;BME280;25478;42.626;23.320;2023-03-14T10:00:30;92890.75;;;10.23;39.20
39789;BME280;25478;42.626;23.320;2023-03-14T10:03:21;92890.72;;;10.12;39.69
39789;BME280;25478;42.626;23.320;2023-03-14T10:05:47;92874.56;;;10.06;39.76
39789;BME280;25478;42.626;23.320;2023-03-14T10:08:13;92877.19;;;10.17;39.69
39789;BME280;25478;42.626;23.320;2023-03-14T10:10:40;92879.84;;;10.21;39.44
39789;BME280;25478;42.626;23.320;2023-03-14T10:15:39;92870.09;;;10.28;39.16
39789;BME280;25478;42.626;23.320;2023-03-14T10:18:11;92861.81;;;10.33;39.55
39789;BME280;25478;42.626;23.320;2023-03-14T10:23:47;92835.91;;;10.42;39.40
39789;BME280;25478;42.626;23.320;2023-03-14T10:26:18;92847.84;;;10.76;39.35
39789;BME280;25478;42.626;23.320;2023-03-14T10:28:51;92829.75;;;10.92;38.74
39789;BME280;25478;42.626;23.320;2023-03-14T10:31:18;92841.38;;;11.09;38.37
39789;BME280;25478;42.626;23.320;2023-03-14T10:33:58;92822.91;;;11.19;38.44
39789;BME280;25478;42.626;23.320;2023-03-14T10:36:27;92818.28;;;11.34;38.24
39789;BME280;25478;42.626;23.320;2023-03-14T10:39:14;92817.44;;;11.51;37.66
39789;BME280;25478;42.626;23.320;2023-03-14T10:41:47;92796.69;;;11.64;37.90
39789;BME280;25478;42.626;23.320;2023-03-14T10:44:21;92794.00;;;11.71;37.60
39789;BME280;25478;42.626;23.320;2023-03-14T10:47:02;92785.69;;;11.80;37.39
39789;BME280;25478;42.626;23.320;2023-03-14T10:49:31;92777.38;;;11.81;37.41
39789;BME280;25478;42.626;23.320;2023-03-14T10:52:46;92782.94;;;11.94;37.55
39789;BME280;25478;42.626;23.320;2023-03-14T10:54:54;92773.06;;;12.02;37.55
39789;BME280;25478;42.626;23.320;2023-03-14T10:57:20;92761.34;;;12.06;37.50
39789;BME280;25478;42.626;23.320;2023-03-14T10:59:46;92747.41;;;12.06;37.31
39789;BME280;25478;42.626;23.320;2023-03-14T11:02:31;92755.22;;;12.20;37.29
39789;BME280;25478;42.626;23.320;2023-03-14T11:05:15;92761.25;;;12.21;37.20
39789;BME280;25478;42.626;23.320;2023-03-14T11:07:45;92750.66;;;12.24;36.95
39789;BME280;25478;42.626;23.320;2023-03-14T11:12:56;92733.66;;;12.29;37.71
39789;BME280;25478;42.626;23.320;2023-03-14T11:15:37;92736.56;;;12.38;37.98
39789;BME280;25478;42.626;23.320;2023-03-14T11:23:21;92700.88;;;12.60;36.99
39789;BME280;25478;42.626;23.320;2023-03-14T11:25:59;92701.09;;;12.73;36.85
39789;BME280;25478;42.626;23.320;2023-03-14T11:31:31;92684.47;;;12.76;37.21
39789;BME280;25478;42.626;23.320;2023-03-14T11:34:22;92676.91;;;12.78;36.95
39789;BME280;25478;42.626;23.320;2023-03-14T11:36:59;92686.13;;;12.93;36.71
39789;BME280;25478;42.626;23.320;2023-03-14T11:39:38;92680.47;;;12.95;36.59
39789;BME280;25478;42.626;23.320;2023-03-14T11:42:04;92675.19;;;12.95;37.14
39789;BME280;25478;42.626;23.320;2023-03-14T11:44:36;92666.38;;;13.05;36.47
39789;BME280;25478;42.626;23.320;2023-03-14T11:47:06;92660.22;;;13.12;36.53
39789;BME280;25478;42.626;23.320;2023-03-14T11:49:36;92663.91;;;13.18;36.37
39789;BME280;25478;42.626;23.320;2023-03-14T11:52:19;92658.09;;;13.30;36.50
39789;BME280;25478;42.626;23.320;2023-03-14T11:57:20;92648.72;;;13.26;35.90
39789;BME280;25478;42.626;23.320;2023-03-14T12:02:51;92641.97;;;13.48;35.84
39789;BME280;25478;42.626;23.320;2023-03-14T12:10:39;92626.97;;;13.65;34.65
39789;BME280;25478;42.626;23.320;2023-03-14T12:13:10;92616.72;;;13.67;34.93
39789;BME280;25478;42.626;23.320;2023-03-14T12:15:42;92619.66;;;13.72;34.23
39789;BME280;25478;42.626;23.320;2023-03-14T12:18:38;92607.63;;;13.68;34.50
39789;BME280;25478;42.626;23.320;2023-03-14T12:21:07;92599.59;;;13.75;34.63
39789;BME280;25478;42.626;23.320;2023-03-14T12:23:43;92602.53;;;13.80;34.49
39789;BME280;25478;42.626;23.320;2023-03-14T12:26:27;92600.50;;;13.88;34.29
39789;BME280;25478;42.626;23.320;2023-03-14T12:29:15;92571.44;;;13.85;34.28
39789;BME280;25478;42.626;23.320;2023-03-14T12:34:42;92580.06;;;14.08;33.61
39789;BME280;25478;42.626;23.320;2023-03-14T12:48:00;92567.50;;;13.93;33.23
39789;BME280;25478;42.626;23.320;2023-03-14T12:50:34;92561.06;;;13.94;33.42
39789;BME280;25478;42.626;23.320;2023-03-14T12:58:47;92534.66;;;14.10;33.75
39789;BME280;25478;42.626;23.320;2023-03-14T13:01:20;92540.16;;;14.19;33.28
39789;BME280;25478;42.626;23.320;2023-03-14T13:03:50;92533.56;;;14.27;32.79
39789;BME280;25478;42.626;23.320;2023-03-14T13:12:03;92520.00;;;14.61;32.63
39789;BME280;25478;42.626;23.320;2023-03-14T13:14:34;92511.31;;;14.61;32.09
39789;BME280;25478;42.626;23.320;2023-03-14T13:17:01;92511.25;;;14.64;32.47
39789;BME280;25478;42.626;23.320;2023-03-14T13:19:29;92504.81;;;14.66;32.36
39789;BME280;25478;42.626;23.320;2023-03-14T13:22:04;92498.34;;;14.67;32.26
39789;BME280;25478;42.626;23.320;2023-03-14T13:24:33;92495.69;;;14.67;31.95
39789;BME280;25478;42.626;23.320;2023-03-14T13:26:59;92489.38;;;14.60;32.04
39789;BME280;25478;42.626;23.320;2023-03-14T13:29:28;92483.34;;;14.60;32.21
39789;BME280;25478;42.626;23.320;2023-03-14T13:31:55;92451.19;;;14.42;31.66
39789;BME280;25478;42.626;23.320;2023-03-14T13:34:34;92475.56;;;14.69;31.85
39789;BME280;25478;42.626;23.320;2023-03-14T13:37:00;92472.75;;;14.76;31.78
39789;BME280;25478;42.626;23.320;2023-03-14T13:39:27;92458.78;;;14.76;31.57
39789;BME280;25478;42.626;23.320;2023-03-14T13:42:01;92449.97;;;14.62;31.38
39789;BME280;25478;42.626;23.320;2023-03-14T13:44:38;92452.56;;;14.66;31.61
39789;BME280;25478;42.626;23.320;2023-03-14T13:47:09;92439.66;;;14.68;31.34
39789;BME280;25478;42.626;23.320;2023-03-14T13:49:37;92441.47;;;14.71;31.51
39789;BME280;25478;42.626;23.320;2023-03-14T13:52:03;92439.91;;;14.74;31.47
39789;BME280;25478;42.626;23.320;2023-03-14T13:54:31;92428.16;;;14.75;31.28
39789;BME280;25478;42.626;23.320;2023-03-14T13:57:04;92424.75;;;14.74;31.54
39789;BME280;25478;42.626;23.320;2023-03-14T13:59:34;92429.72;;;14.72;31.09
39789;BME280;25478;42.626;23.320;2023-03-14T14:02:04;92425.97;;;14.70;31.68
39789;BME280;25478;42.626;23.320;2023-03-14T14:04:36;92413.84;;;14.72;31.37
39789;BME280;25478;42.626;23.320;2023-03-14T14:07:08;92408.19;;;14.70;31.25